Time;durP1;ratioP1;P1;durP2;ratioP2;P2;SDS_P1;SDS_P2;PMS_P1;PMS_P2;Temp;Humidity;BMP_temperature;BMP_pressure;BME280_temperature;BME280_humidity;BME280_pressure;Samples;Min_cycle;Max_cycle;Signal;HPM_P1;HPM_P2
2021/05/27 00:01:21;;;;;;;11.53;8.07;;;10.70;99.90;;;;;;4938775;29;20532;-76
2021/05/27 00:03:47;;;;;;;12.33;7.87;;;10.70;99.90;;;;;;4938233;29;20213;-76
2021/05/27 00:06:13;;;;;;;12.38;7.72;;;10.70;99.90;;;;;;4938585;29;20197;-76
2021/05/27 00:08:39;;;;;;;9.10;7.63;;;10.60;99.90;;;;;;4938425;29;20186;-76
2021/05/27 00:11:04;;;;;;;12.03;8.40;;;10.70;99.90;;;;;;4921442;29;20192;-76
2021/05/27 00:13:30;;;;;;;17.93;8.13;;;10.60;99.90;;;;;;4937322;29;20193;-76
2021/05/27 00:15:55;;;;;;;14.67;8.47;;;10.70;99.90;;;;;;4938414;29;20181;-76
2021/05/27 00:18:21;;;;;;;14.10;9.90;;;10.70;99.90;;;;;;4938289;29;20186;-75
2021/05/27 00:20:47;;;;;;;9.70;8.60;;;10.60;99.90;;;;;;4938185;29;20208;-76
2021/05/27 00:23:12;;;;;;;18.00;9.57;;;10.70;99.90;;;;;;4938000;29;20655;-76
2021/05/27 00:25:38;;;;;;;11.17;9.47;;;10.70;99.90;;;;;;4938280;29;20221;-76
2021/05/27 00:28:04;;;;;;;15.67;9.17;;;10.70;99.90;;;;;;4938161;29;20209;-76
2021/05/27 00:30:29;;;;;;;15.87;9.77;;;10.80;99.90;;;;;;4938153;29;20578;-77
2021/05/27 00:32:55;;;;;;;11.00;9.93;;;10.80;99.90;;;;;;4937630;29;20182;-77
2021/05/27 00:35:21;;;;;;;10.40;9.03;;;10.80;99.90;;;;;;4937887;29;20201;-76
2021/05/27 00:37:46;;;;;;;12.43;10.30;;;10.80;99.90;;;;;;4938171;29;20190;-76
2021/05/27 00:40:15;;;;;;;12.27;9.10;;;10.80;99.90;;;;;;4938145;29;20178;-76
2021/05/27 00:42:41;;;;;;;16.23;10.20;;;10.80;99.90;;;;;;4938009;29;20229;-76
2021/05/27 00:45:09;;;;;;;13.18;9.23;;;10.80;99.90;;;;;;4937566;29;20213;-76
2021/05/27 00:47:36;;;;;;;9.77;8.60;;;10.70;99.90;;;;;;4937893;29;20582;-76
2021/05/27 00:50:04;;;;;;;12.13;9.82;;;10.70;99.90;;;;;;4936563;29;20635;-76
2021/05/27 00:52:30;;;;;;;13.55;9.18;;;10.70;99.90;;;;;;4937866;29;20193;-76
2021/05/27 00:54:58;;;;;;;15.40;9.38;;;10.60;99.90;;;;;;4937282;29;20320;-77
2021/05/27 00:57:34;;;;;;;11.07;9.40;;;10.60;99.90;;;;;;4937660;29;20186;-76
2021/05/27 01:00:03;;;;;;;21.98;11.10;;;10.70;99.90;;;;;;4937624;29;20153;-76
2021/05/27 01:02:29;;;;;;;13.93;10.65;;;10.80;99.90;;;;;;4937430;29;20698;-76
2021/05/27 01:04:54;;;;;;;10.60;9.60;;;10.90;99.90;;;;;;4937067;29;20280;-76
2021/05/27 01:07:21;;;;;;;12.73;9.37;;;10.60;99.90;;;;;;4936358;29;20543;-76
2021/05/27 01:09:46;;;;;;;14.05;10.25;;;10.70;99.90;;;;;;4937548;29;20584;-77
2021/05/27 01:12:12;;;;;;;14.97;10.07;;;10.70;99.90;;;;;;4937330;29;20269;-76
2021/05/27 01:17:25;;;;;;;12.07;9.50;;;10.60;99.90;;;;;;4937493;29;20337;-76
2021/05/27 01:19:52;;;;;;;12.85;9.65;;;10.60;99.90;;;;;;4937260;29;20193;-76
2021/05/27 01:22:20;;;;;;;11.70;8.85;;;10.50;99.90;;;;;;4937174;29;20181;-77
2021/05/27 01:24:46;;;;;;;14.05;10.95;;;10.40;99.90;;;;;;4935792;29;20213;-76
2021/05/27 01:27:12;;;;;;;13.70;10.57;;;10.40;99.90;;;;;;4937044;29;20662;-76
2021/05/27 01:29:38;;;;;;;14.60;9.63;;;10.40;99.90;;;;;;4937098;29;20197;-76
2021/05/27 01:32:04;;;;;;;15.20;10.10;;;10.50;99.90;;;;;;4937047;29;20197;-76
2021/05/27 01:34:29;;;;;;;21.15;9.63;;;10.40;99.90;;;;;;4936753;29;20197;-76
2021/05/27 01:36:55;;;;;;;11.27;9.20;;;10.50;99.90;;;;;;4936900;29;20619;-76
2021/05/27 01:39:20;;;;;;;12.60;9.47;;;10.40;99.90;;;;;;4936849;29;20198;-76
2021/05/27 01:41:49;;;;;;;12.30;9.13;;;10.50;99.90;;;;;;4936948;29;20208;-76
2021/05/27 01:44:15;;;;;;;10.80;9.10;;;10.50;99.90;;;;;;4935534;29;20264;-77
2021/05/27 01:46:40;;;;;;;15.47;9.50;;;10.60;99.90;;;;;;4936710;29;20576;-76
2021/05/27 01:49:06;;;;;;;14.17;10.67;;;10.60;99.90;;;;;;4936705;29;20173;-76
2021/05/27 01:51:31;;;;;;;16.80;9.70;;;10.50;99.90;;;;;;4936626;29;20178;-76
2021/05/27 01:53:57;;;;;;;12.40;8.90;;;10.50;99.90;;;;;;4936259;29;20674;-76
2021/05/27 01:56:23;;;;;;;12.83;8.17;;;10.60;99.90;;;;;;4936626;29;20186;-76
2021/05/27 01:58:48;;;;;;;11.90;9.83;;;10.50;99.90;;;;;;4935417;29;20336;-76
2021/05/27 02:01:14;;;;;;;12.80;9.20;;;10.50;99.90;;;;;;4936490;29;20435;-76
2021/05/27 02:03:40;;;;;;;13.10;9.77;;;10.50;99.90;;;;;;4934968;29;20213;-76
2021/05/27 02:06:05;;;;;;;12.10;9.13;;;10.40;99.90;;;;;;4936434;29;20209;-76
2021/05/27 02:08:31;;;;;;;14.90;9.33;;;10.50;99.90;;;;;;4936409;29;20173;-76
2021/05/27 02:10:56;;;;;;;17.73;10.00;;;10.50;99.90;;;;;;4936368;29;20174;-76
2021/05/27 02:13:23;;;;;;;20.30;11.30;;;10.60;99.90;;;;;;4936002;29;20225;-76
2021/05/27 02:15:48;;;;;;;9.10;8.23;;;10.50;99.90;;;;;;4936329;29;20177;-76
2021/05/27 02:18:14;;;;;;;14.57;10.23;;;10.40;99.90;;;;;;4935146;29;20244;-76
2021/05/27 02:20:40;;;;;;;14.40;9.90;;;10.40;99.90;;;;;;4936367;29;20189;-76
2021/05/27 02:23:06;;;;;;;9.80;8.80;;;10.40;99.90;;;;;;4934565;29;20646;-76
2021/05/27 02:25:31;;;;;;;14.23;9.80;;;10.40;99.90;;;;;;4936200;29;20253;-77
2021/05/27 02:27:57;;;;;;;14.73;9.90;;;10.40;99.90;;;;;;4936113;29;20508;-76
2021/05/27 02:30:24;;;;;;;15.80;10.63;;;10.40;99.90;;;;;;4935147;29;20174;-76
2021/05/27 02:32:50;;;;;;;14.65;10.73;;;10.50;99.90;;;;;;4935791;29;20209;-76
2021/05/27 02:35:15;;;;;;;21.23;12.60;;;10.50;99.90;;;;;;4935528;29;20713;-75
2021/05/27 02:37:41;;;;;;;15.43;11.43;;;10.60;99.90;;;;;;4935901;29;20714;-75
2021/05/27 02:40:07;;;;;;;18.00;11.00;;;10.60;99.90;;;;;;4918922;29;20208;-76
2021/05/27 02:42:33;;;;;;;17.10;11.23;;;10.50;99.90;;;;;;4936092;29;20186;-77
2021/05/27 02:44:59;;;;;;;12.10;10.23;;;10.50;99.90;;;;;;4935630;29;20205;-76
2021/05/27 02:47:25;;;;;;;15.83;11.53;;;10.40;99.90;;;;;;4936018;29;20241;-76
2021/05/27 02:49:51;;;;;;;18.15;11.68;;;10.40;99.90;;;;;;4936042;29;20181;-76
2021/05/27 02:52:16;;;;;;;16.63;11.00;;;10.40;99.90;;;;;;4935892;29;20186;-76
2021/05/27 02:54:42;;;;;;;15.30;11.00;;;10.50;99.90;;;;;;4935494;29;20473;-75
2021/05/27 02:57:07;;;;;;;14.43;10.07;;;10.50;99.90;;;;;;4935864;29;20315;-75
2021/05/27 02:59:33;;;;;;;16.00;10.93;;;10.40;99.90;;;;;;4935849;29;20221;-76
2021/05/27 03:01:59;;;;;;;18.13;10.43;;;10.50;99.90;;;;;;4935767;29;20643;-76
2021/05/27 03:04:24;;;;;;;18.03;10.20;;;10.50;99.90;;;;;;4935491;29;20256;-75
2021/05/27 03:06:50;;;;;;;12.60;11.00;;;10.50;99.90;;;;;;4935728;29;20209;-76
2021/05/27 03:09:16;;;;;;;11.10;9.93;;;10.70;99.90;;;;;;4935688;29;20237;-75
2021/05/27 03:11:42;;;;;;;13.17;11.30;;;10.60;99.90;;;;;;4935878;29;20181;-76
2021/05/27 03:14:08;;;;;;;15.20;10.82;;;10.50;99.90;;;;;;4935237;29;20210;-76
2021/05/27 03:16:33;;;;;;;14.40;11.30;;;10.60;99.90;;;;;;4934470;29;20195;-75
2021/05/27 03:18:59;;;;;;;16.20;12.93;;;10.50;99.90;;;;;;4935673;29;20197;-76
2021/05/27 03:21:25;;;;;;;16.13;11.30;;;10.60;99.90;;;;;;4936159;29;20210;-76
2021/05/27 03:23:50;;;;;;;16.70;11.17;;;10.60;99.90;;;;;;4935170;29;20197;-75
2021/05/27 03:26:16;;;;;;;18.57;11.50;;;10.50;99.90;;;;;;4935392;29;20205;-76
2021/05/27 03:28:42;;;;;;;16.52;10.80;;;10.50;99.90;;;;;;4935671;29;20173;-76
2021/05/27 03:31:08;;;;;;;16.13;10.50;;;10.50;99.90;;;;;;4934296;29;20186;-76
2021/05/27 03:33:33;;;;;;;14.73;10.90;;;10.60;99.90;;;;;;4935466;29;20193;-76
2021/05/27 03:35:59;;;;;;;14.73;11.97;;;10.60;99.90;;;;;;4934374;29;20221;-76
2021/05/27 03:38:25;;;;;;;13.90;10.10;;;10.60;99.90;;;;;;4935642;29;20651;-75
2021/05/27 03:40:50;;;;;;;15.77;13.00;;;10.50;99.90;;;;;;4934249;29;20189;-76
2021/05/27 03:43:16;;;;;;;13.53;11.70;;;10.50;99.90;;;;;;4935227;29;20292;-76
2021/05/27 03:45:42;;;;;;;17.08;12.48;;;10.50;99.90;;;;;;4935515;29;20701;-76
2021/05/27 03:48:08;;;;;;;17.37;12.70;;;10.60;99.90;;;;;;4936993;29;20197;-75
2021/05/27 03:50:34;;;;;;;18.50;10.83;;;10.60;99.90;;;;;;4938936;29;20468;-76
2021/05/27 03:53:00;;;;;;;13.60;11.87;;;10.60;99.90;;;;;;4938497;29;20421;-76
2021/05/27 03:55:27;;;;;;;18.02;12.52;;;10.50;99.90;;;;;;4938786;29;20862;-76
2021/05/27 03:57:53;;;;;;;14.95;13.18;;;10.50;99.90;;;;;;4938846;29;20194;-76
2021/05/27 04:03:06;;;;;;;17.45;13.27;;;10.60;99.90;;;;;;4938414;29;20637;-75
2021/05/27 04:08:17;;;;;;;18.58;14.65;;;10.60;99.90;;;;;;4938836;29;20177;-76
2021/05/27 04:10:44;;;;;;;17.67;14.82;;;10.60;99.90;;;;;;4938487;29;20182;-76
2021/05/27 04:13:09;;;;;;;19.73;15.65;;;10.50;99.90;;;;;;4938030;29;20262;-76
2021/05/27 04:15:37;;;;;;;16.60;14.80;;;10.50;99.90;;;;;;4938369;29;20256;-75
2021/05/27 04:18:09;;;;;;;23.10;16.20;;;10.50;99.90;;;;;;4938435;29;20178;-75
2021/05/27 04:20:36;;;;;;;18.95;15.27;;;10.50;99.90;;;;;;4938160;29;20182;-76
2021/05/27 04:23:04;;;;;;;18.90;16.35;;;10.60;99.90;;;;;;4937916;29;20177;-76
2021/05/27 04:25:30;;;;;;;20.08;15.10;;;10.60;99.90;;;;;;4938080;29;20197;-76
2021/05/27 04:27:59;;;;;;;24.20;17.10;;;10.60;99.90;;;;;;4938283;29;20232;-76
2021/05/27 04:30:26;;;;;;;27.95;15.20;;;10.60;99.90;;;;;;4938142;29;20572;-76
2021/05/27 04:33:04;;;;;;;22.00;15.93;;;10.70;99.90;;;;;;4937953;29;20264;-76
2021/05/27 04:35:32;;;;;;;20.90;16.52;;;10.50;99.90;;;;;;4937956;29;20197;-76
2021/05/27 04:38:03;;;;;;;19.83;15.73;;;10.50;99.90;;;;;;4938181;29;20205;-75
2021/05/27 04:40:29;;;;;;;18.45;15.82;;;10.60;99.90;;;;;;4937917;29;20181;-76
2021/05/27 04:42:55;;;;;;;21.25;16.58;;;10.70;99.90;;;;;;4937556;29;20701;-76
2021/05/27 04:45:21;;;;;;;21.13;15.93;;;10.60;99.90;;;;;;4937810;29;20252;-76
2021/05/27 04:47:47;;;;;;;24.67;16.70;;;10.60;99.90;;;;;;4937945;29;20170;-76
2021/05/27 04:50:13;;;;;;;18.80;15.37;;;10.70;99.90;;;;;;4937787;29;20181;-76
2021/05/27 04:52:40;;;;;;;18.77;16.33;;;10.70;99.90;;;;;;4937837;29;20405;-76
2021/05/27 04:55:08;;;;;;;22.38;15.57;;;10.80;99.90;;;;;;4936241;29;20449;-75
2021/05/27 04:57:34;;;;;;;21.48;15.95;;;10.70;99.90;;;;;;4937884;29;20181;-75
2021/05/27 04:59:59;;;;;;;18.40;14.27;;;10.70;99.90;;;;;;4937791;29;20657;-76
2021/05/27 05:02:25;;;;;;;18.73;15.13;;;10.70;99.90;;;;;;4937258;29;20421;-76
2021/05/27 05:04:51;;;;;;;19.43;14.10;;;10.70;99.90;;;;;;4937124;29;20480;-75
2021/05/27 05:07:17;;;;;;;18.57;14.10;;;10.60;99.90;;;;;;4937577;29;20288;-75
2021/05/27 05:09:43;;;;;;;18.73;14.13;;;10.60;99.90;;;;;;4937692;29;20186;-75
2021/05/27 05:12:09;;;;;;;16.40;14.63;;;10.60;99.90;;;;;;4937462;29;20494;-75
2021/05/27 05:14:34;;;;;;;15.80;14.00;;;10.80;99.90;;;;;;4937005;29;20217;-77
2021/05/27 05:17:00;;;;;;;15.90;13.97;;;10.80;99.90;;;;;;4937263;29;20188;-75
2021/05/27 05:19:25;;;;;;;16.57;13.37;;;10.80;99.90;;;;;;4936083;29;20185;-76
2021/05/27 05:21:51;;;;;;;15.03;12.93;;;10.90;99.90;;;;;;4937519;29;20216;-75
2021/05/27 05:24:16;;;;;;;17.83;14.33;;;10.90;99.90;;;;;;4936837;29;20213;-77
2021/05/27 05:26:42;;;;;;;15.23;13.00;;;10.80;99.90;;;;;;4936985;29;20591;-75
2021/05/27 05:29:08;;;;;;;20.07;14.17;;;10.80;99.90;;;;;;4936901;29;20173;-76
2021/05/27 05:31:33;;;;;;;22.87;14.00;;;10.80;99.90;;;;;;4937003;29;20208;-76
2021/05/27 05:33:59;;;;;;;20.33;15.80;;;10.80;99.90;;;;;;4936616;29;20304;-75
2021/05/27 05:36:25;;;;;;;17.30;14.27;;;10.90;99.90;;;;;;4936785;29;20539;-76
2021/05/27 05:38:51;;;;;;;21.70;14.43;;;10.80;99.90;;;;;;4935550;29;20189;-75
2021/05/27 05:41:17;;;;;;;15.50;12.90;;;10.80;99.90;;;;;;4937045;29;20249;-76
2021/05/27 05:43:43;;;;;;;20.40;14.80;;;10.70;99.90;;;;;;4936317;29;20209;-75
2021/05/27 05:46:09;;;;;;;15.77;12.55;;;10.80;99.90;;;;;;4937042;29;20280;-76
2021/05/27 05:48:35;;;;;;;24.10;14.97;;;10.80;99.90;;;;;;4936936;29;20730;-75
2021/05/27 05:51:05;;;;;;;19.10;15.07;;;10.90;99.90;;;;;;4936884;29;20449;-76
2021/05/27 05:53:31;;;;;;;16.38;13.43;;;10.90;99.90;;;;;;4936286;29;20197;-76
2021/05/27 05:55:57;;;;;;;16.50;14.20;;;10.80;99.90;;;;;;4936705;29;20655;-75
2021/05/27 05:58:25;;;;;;;17.33;14.98;;;10.80;99.90;;;;;;4935396;29;20433;-76
2021/05/27 06:00:52;;;;;;;20.38;16.33;;;10.80;99.90;;;;;;4936682;29;20177;-75
2021/05/27 06:03:18;;;;;;;27.75;14.20;;;10.90;99.90;;;;;;4935999;29;20197;-75
2021/05/27 06:05:43;;;;;;;25.20;14.68;;;10.80;99.90;;;;;;4935203;29;20213;-76
2021/05/27 06:08:09;;;;;;;16.40;14.00;;;10.90;99.90;;;;;;4936497;29;20224;-75
2021/05/27 06:10:34;;;;;;;22.93;13.23;;;10.90;99.90;;;;;;4935911;29;20212;-76
2021/05/27 06:13:00;;;;;;;17.90;13.67;;;11.00;99.90;;;;;;4935957;29;20577;-76
2021/05/27 06:15:27;;;;;;;19.23;13.07;;;11.00;99.90;;;;;;4936021;29;20192;-75
2021/05/27 06:17:53;;;;;;;15.98;12.60;;;11.10;99.90;;;;;;4936377;29;20185;-75
2021/05/27 06:20:20;;;;;;;16.33;12.00;;;10.90;99.90;;;;;;4936397;29;20652;-76
2021/05/27 06:22:50;;;;;;;17.25;13.70;;;11.00;99.90;;;;;;4935950;29;20182;-75
2021/05/27 06:25:16;;;;;;;19.00;14.70;;;11.00;99.90;;;;;;4934738;29;20691;-76
2021/05/27 06:27:42;;;;;;;15.40;12.63;;;11.00;99.90;;;;;;4936060;29;20181;-75
2021/05/27 06:30:10;;;;;;;18.45;13.40;;;11.00;99.90;;;;;;4936189;29;20176;-76
2021/05/27 06:32:36;;;;;;;23.45;13.80;;;11.10;99.90;;;;;;4936045;29;20213;-75
2021/05/27 06:35:08;;;;;;;13.50;12.05;;;11.00;99.90;;;;;;4935808;29;20224;-76
2021/05/27 06:37:38;;;;;;;25.75;13.10;;;10.90;99.90;;;;;;4936040;29;20196;-75
2021/05/27 06:40:19;;;;;;;14.35;12.75;;;10.90;99.90;;;;;;4936117;29;20181;-76
2021/05/27 06:42:45;;;;;;;15.18;13.30;;;10.90;99.90;;;;;;4935861;29;20577;-75
2021/05/27 06:45:11;;;;;;;15.38;13.32;;;10.90;99.90;;;;;;4935784;29;20563;-75
2021/05/27 06:47:37;;;;;;;17.30;15.13;;;10.80;99.90;;;;;;4935954;29;20272;-75
2021/05/27 06:50:03;;;;;;;21.70;15.17;;;10.90;99.90;;;;;;4935859;29;20264;-75
2021/05/27 06:52:29;;;;;;;19.65;15.18;;;10.80;99.90;;;;;;4935928;29;20185;-75
2021/05/27 06:54:55;;;;;;;29.43;16.23;;;10.80;99.90;;;;;;4935522;29;20260;-75
2021/05/27 06:57:20;;;;;;;25.17;18.30;;;10.90;99.90;;;;;;4935547;29;20189;-77
2021/05/27 06:59:46;;;;;;;17.80;13.50;;;10.80;99.90;;;;;;4935998;29;20196;-77
2021/05/27 07:02:11;;;;;;;17.80;15.77;;;10.80;99.90;;;;;;4934632;29;20620;-77
2021/05/27 07:04:37;;;;;;;23.23;17.60;;;10.70;99.90;;;;;;4934985;29;20205;-77
2021/05/27 07:07:03;;;;;;;22.33;17.13;;;10.80;99.90;;;;;;4935263;29;20205;-79
2021/05/27 07:09:28;;;;;;;23.27;18.93;;;10.80;99.90;;;;;;4935661;29;20273;-77
2021/05/27 07:11:55;;;;;;;27.40;19.80;;;10.80;99.90;;;;;;4916303;29;20714;-76
2021/05/27 07:14:20;;;;;;;22.60;17.38;;;10.80;99.90;;;;;;4915359;29;20194;-77
2021/05/27 07:16:46;;;;;;;23.20;19.57;;;10.90;99.90;;;;;;4916365;29;20706;-77
2021/05/27 07:19:11;;;;;;;21.17;18.03;;;10.90;99.90;;;;;;4914986;29;20197;-77
2021/05/27 07:21:38;;;;;;;25.23;16.90;;;10.90;99.90;;;;;;4917105;29;20190;-76
2021/05/27 07:24:04;;;;;;;24.67;16.02;;;11.00;99.90;;;;;;4918559;29;20261;-77
2021/05/27 07:26:30;;;;;;;18.77;15.68;;;11.10;99.90;;;;;;4920099;29;20754;-76
2021/05/27 07:28:57;;;;;;;23.63;17.13;;;11.00;99.90;;;;;;4920175;29;20261;-77
2021/05/27 07:31:23;;;;;;;20.95;16.42;;;11.10;99.90;;;;;;4937143;29;20536;-76
2021/05/27 07:33:48;;;;;;;22.70;16.80;;;11.10;99.90;;;;;;4938630;29;20205;-77
2021/05/27 07:36:14;;;;;;;23.23;16.53;;;11.10;99.90;;;;;;4938519;29;20441;-76
2021/05/27 07:38:39;;;;;;;18.17;14.00;;;11.10;99.90;;;;;;4938482;29;20260;-77
2021/05/27 07:41:06;;;;;;;14.40;10.57;;;11.20;99.90;;;;;;4938566;29;20556;-77
2021/05/27 07:43:32;;;;;;;15.98;11.63;;;11.10;99.90;;;;;;4936970;29;20197;-76
2021/05/27 07:45:58;;;;;;;14.00;10.93;;;11.10;99.90;;;;;;4938501;29;20224;-77
2021/05/27 07:48:23;;;;;;;18.47;12.30;;;11.20;99.90;;;;;;4921958;29;20189;-77
2021/05/27 07:50:49;;;;;;;18.67;10.87;;;11.20;99.90;;;;;;4937540;29;20204;-76
2021/05/27 07:53:20;;;;;;;16.20;10.90;;;11.20;99.90;;;;;;4938181;29;20205;-77
2021/05/27 07:55:46;;;;;;;8.95;7.97;;;11.20;99.90;;;;;;4935991;29;20209;-76
2021/05/27 07:58:13;;;;;;;17.65;9.00;;;11.10;99.90;;;;;;4938804;29;20530;-77
2021/05/27 08:00:39;;;;;;;20.17;11.57;;;11.10;99.90;;;;;;4938603;29;20209;-76
2021/05/27 08:03:05;;;;;;;19.52;11.13;;;11.20;99.90;;;;;;4936936;29;20215;-77
2021/05/27 08:05:31;;;;;;;19.07;12.50;;;11.30;99.90;;;;;;4936625;29;20279;-77
2021/05/27 08:07:57;;;;;;;19.10;12.05;;;11.40;99.90;;;;;;4933805;29;20186;-77
2021/05/27 08:10:23;;;;;;;15.23;10.77;;;11.30;99.90;;;;;;4937351;29;20177;-76
2021/05/27 08:12:49;;;;;;;15.93;11.10;;;11.20;99.90;;;;;;4937655;29;20667;-76
2021/05/27 08:15:14;;;;;;;16.20;9.83;;;11.20;99.90;;;;;;4938276;29;20437;-76
2021/05/27 08:17:40;;;;;;;15.83;10.90;;;11.30;99.90;;;;;;4937925;29;20177;-76
2021/05/27 08:20:07;;;;;;;12.97;10.00;;;11.30;99.90;;;;;;4938043;29;20182;-78
2021/05/27 08:22:33;;;;;;;15.23;10.60;;;11.30;99.90;;;;;;4938088;29;20185;-78
2021/05/27 08:24:59;;;;;;;15.97;11.20;;;11.30;99.90;;;;;;4937835;29;20210;-77
2021/05/27 08:27:24;;;;;;;18.60;11.90;;;11.30;99.90;;;;;;4937810;29;20256;-76
2021/05/27 08:29:50;;;;;;;19.43;11.63;;;11.30;99.90;;;;;;4938012;29;20476;-77
2021/05/27 08:32:15;;;;;;;18.90;10.90;;;11.50;99.90;;;;;;4937975;29;20557;-76
2021/05/27 08:34:41;;;;;;;20.53;11.53;;;11.40;99.90;;;;;;4936942;29;20616;-76
2021/05/27 08:37:07;;;;;;;19.40;12.47;;;11.30;99.90;;;;;;4937953;29;20212;-76
2021/05/27 08:39:33;;;;;;;16.73;11.00;;;11.50;99.90;;;;;;4938006;29;20421;-77
2021/05/27 08:42:00;;;;;;;14.93;10.50;;;11.50;99.90;;;;;;4936800;29;20181;-76
2021/05/27 08:44:26;;;;;;;17.17;11.35;;;11.30;99.90;;;;;;4937397;29;20201;-77
2021/05/27 08:46:52;;;;;;;23.23;11.27;;;11.50;99.90;;;;;;4937823;29;20224;-77
2021/05/27 08:49:18;;;;;;;16.60;10.30;;;11.50;99.90;;;;;;4933456;29;20643;-76
2021/05/27 08:51:44;;;;;;;13.95;10.50;;;11.40;99.90;;;;;;4934427;29;20198;-76
2021/05/27 08:54:10;;;;;;;12.77;8.07;;;11.30;99.90;;;;;;4935479;29;20204;-78
2021/05/27 08:56:37;;;;;;;14.32;9.40;;;11.20;99.90;;;;;;4935751;29;20185;-77
2021/05/27 08:59:03;;;;;;;15.98;8.73;;;11.20;99.90;;;;;;4935610;29;20186;-76
2021/05/27 09:01:28;;;;;;;15.65;9.98;;;11.30;99.90;;;;;;4936062;29;20189;-77
2021/05/27 09:03:54;;;;;;;11.20;8.10;;;11.40;99.90;;;;;;4934831;29;20571;-77
2021/05/27 09:06:21;;;;;;;10.73;8.80;;;11.40;99.90;;;;;;4935765;29;20587;-76
2021/05/27 09:08:47;;;;;;;13.50;7.30;;;11.40;99.90;;;;;;4936004;29;20421;-76
2021/05/27 09:11:14;;;;;;;9.33;6.77;;;11.50;99.90;;;;;;4933993;29;20189;-76
2021/05/27 09:13:57;;;;;;;9.55;6.78;;;11.40;99.90;;;;;;4936244;29;20544;-76
2021/05/27 09:16:23;;;;;;;8.65;6.55;;;11.40;99.90;;;;;;4937195;29;20650;-76
2021/05/27 09:18:49;;;;;;;11.27;7.22;;;11.50;99.90;;;;;;4937149;29;20190;-76
2021/05/27 09:21:16;;;;;;;5.10;4.03;;;11.60;99.90;;;;;;4937245;29;20588;-76
2021/05/27 09:23:52;;;;;;;11.57;5.60;;;11.70;99.90;;;;;;4936732;29;20253;-76
2021/05/27 09:26:19;;;;;;;10.10;6.82;;;11.70;99.90;;;;;;4937061;29;20209;-75
2021/05/27 09:28:46;;;;;;;9.48;5.70;;;11.80;99.90;;;;;;4936835;29;20196;-76
2021/05/27 09:31:20;;;;;;;10.70;5.00;;;11.90;99.90;;;;;;4936885;29;20216;-75
2021/05/27 09:34:00;;;;;;;8.27;5.68;;;11.90;99.90;;;;;;4936748;29;20198;-76
2021/05/27 09:36:26;;;;;;;11.10;4.47;;;11.60;99.90;;;;;;4936886;29;20197;-76
2021/05/27 09:38:57;;;;;;;4.67;3.67;;;11.50;99.90;;;;;;4935185;29;20196;-76
2021/05/27 09:41:24;;;;;;;6.72;3.80;;;11.50;99.90;;;;;;4936303;29;20185;-76
2021/05/27 09:44:14;;;;;;;9.00;4.85;;;11.40;99.90;;;;;;4935922;29;20202;-76
2021/05/27 09:46:52;;;;;;;6.30;5.45;;;11.30;99.90;;;;;;4935969;29;20228;-76
2021/05/27 09:49:23;;;;;;;8.48;5.55;;;11.30;99.90;;;;;;4935480;29;20187;-77
2021/05/27 09:51:52;;;;;;;6.18;4.50;;;11.30;99.90;;;;;;4935349;29;20578;-76
2021/05/27 09:54:18;;;;;;;13.32;5.43;;;11.30;99.90;;;;;;4936411;29;20201;-74
2021/05/27 09:56:43;;;;;;;8.93;5.20;;;11.20;99.90;;;;;;4951398;29;20193;-77
2021/05/27 09:59:11;;;;;;;10.50;5.40;;;11.20;99.90;;;;;;4936614;29;20174;-74
2021/05/27 10:01:38;;;;;;;7.68;5.60;;;11.20;99.90;;;;;;4936685;29;20181;-76
2021/05/27 10:04:12;;;;;;;12.27;5.40;;;11.30;99.90;;;;;;4936137;29;20198;-77
2021/05/27 10:06:37;;;;;;;16.08;6.75;;;11.40;99.90;;;;;;4935123;29;20217;-77
2021/05/27 10:09:08;;;;;;;7.80;6.23;;;11.40;99.90;;;;;;4936248;29;20783;-76
2021/05/27 10:11:37;;;;;;;12.68;6.38;;;11.50;99.90;;;;;;4936375;29;20541;-77
2021/05/27 10:14:03;;;;;;;9.00;6.20;;;11.40;99.90;;;;;;4936026;29;20201;-76
2021/05/27 10:16:29;;;;;;;10.07;5.10;;;11.40;99.90;;;;;;4936508;29;20552;-76
2021/05/27 10:18:56;;;;;;;13.33;6.13;;;11.40;99.90;;;;;;4936186;29;20177;-76
2021/05/27 10:21:25;;;;;;;6.65;5.22;;;11.30;99.90;;;;;;4936072;29;20181;-77
2021/05/27 10:23:53;;;;;;;5.35;4.32;;;11.20;99.90;;;;;;4935746;29;20213;-77
2021/05/27 10:26:20;;;;;;;11.88;6.22;;;11.10;99.90;;;;;;4935967;29;20213;-76
2021/05/27 10:28:48;;;;;;;10.63;6.55;;;11.10;99.90;;;;;;4936161;29;20173;-77
2021/05/27 10:31:14;;;;;;;11.98;8.23;;;11.10;99.90;;;;;;4935985;29;20177;-77
2021/05/27 10:33:42;;;;;;;7.80;6.72;;;11.10;99.90;;;;;;4934475;29;20202;-77
2021/05/27 10:36:09;;;;;;;7.95;7.15;;;11.00;99.90;;;;;;4935928;29;20618;-78
2021/05/27 10:38:41;;;;;;;12.15;8.77;;;10.90;99.90;;;;;;4934751;29;20190;-77
2021/05/27 10:41:18;;;;;;;20.48;10.75;;;10.80;99.90;;;;;;4935928;29;20189;-77
2021/05/27 10:44:07;;;;;;;12.45;8.77;;;10.90;99.90;;;;;;4934520;29;20205;-77
2021/05/27 10:46:55;;;;;;;18.10;10.45;;;10.80;99.90;;;;;;4935978;29;20315;-78
2021/05/27 10:49:40;;;;;;;13.05;10.27;;;10.80;99.90;;;;;;4935890;29;20188;-77
2021/05/27 10:52:27;;;;;;;13.02;8.02;;;10.80;99.90;;;;;;4936004;29;20224;-78
2021/05/27 10:54:53;;;;;;;12.90;9.15;;;10.80;99.90;;;;;;4935526;29;20200;-78
2021/05/27 10:57:40;;;;;;;16.93;9.83;;;10.90;99.90;;;;;;4938055;29;21030;-77
2021/05/27 11:00:18;;;;;;;19.65;10.73;;;10.90;99.90;;;;;;4939842;29;20184;-78
2021/05/27 11:02:44;;;;;;;14.40;10.60;;;11.10;99.90;;;;;;4939667;29;20170;-78
2021/05/27 11:05:21;;;;;;;14.77;9.93;;;11.00;99.90;;;;;;4939802;29;20210;-78
2021/05/27 11:08:18;;;;;;;18.20;9.50;;;11.00;99.90;;;;;;4939773;29;20251;-78
2021/05/27 11:10:43;;;;;;;18.55;11.00;;;10.80;99.90;;;;;;4939728;29;20180;-77
2021/05/27 11:13:09;;;;;;;15.17;10.30;;;10.70;99.90;;;;;;4938119;29;20533;-78
2021/05/27 11:15:35;;;;;;;12.90;10.20;;;10.70;99.90;;;;;;4939560;29;20201;-78
2021/05/27 11:18:02;;;;;;;15.30;11.30;;;10.60;99.90;;;;;;4939475;29;20185;-78
2021/05/27 11:20:30;;;;;;;15.43;11.60;;;10.60;99.90;;;;;;4938149;29;20702;-78
2021/05/27 11:23:08;;;;;;;14.63;12.35;;;10.60;99.90;;;;;;4937709;29;20559;-78
2021/05/27 11:25:35;;;;;;;16.58;11.23;;;10.80;99.90;;;;;;4939042;29;20201;-78
2021/05/27 11:28:01;;;;;;;13.25;11.85;;;10.80;99.90;;;;;;4939447;29;20174;-77
2021/05/27 11:30:29;;;;;;;16.90;12.35;;;10.80;99.90;;;;;;4939210;29;20204;-77
2021/05/27 11:33:00;;;;;;;19.60;13.10;;;11.00;99.90;;;;;;4938776;29;20170;-77
2021/05/27 11:35:49;;;;;;;14.02;12.10;;;11.00;99.90;;;;;;4939011;29;20166;-77
2021/05/27 11:38:21;;;;;;;16.65;12.40;;;11.20;99.90;;;;;;4938633;29;20192;-77
2021/05/27 11:40:59;;;;;;;18.88;13.40;;;11.40;99.90;;;;;;4937828;29;20189;-77
2021/05/27 11:43:36;;;;;;;18.35;13.30;;;11.60;99.90;;;;;;4938735;29;20196;-77
2021/05/27 11:46:07;;;;;;;21.17;12.60;;;11.60;99.90;;;;;;4939001;29;20205;-78
2021/05/27 11:48:38;;;;;;;20.17;12.05;;;11.80;99.90;;;;;;4938938;29;20170;-78
2021/05/27 11:51:12;;;;;;;17.83;11.27;;;11.90;99.90;;;;;;4938863;29;20166;-78
2021/05/27 11:53:39;;;;;;;15.15;11.30;;;11.80;99.90;;;;;;4938564;29;20186;-78
2021/05/27 11:56:05;;;;;;;20.88;11.48;;;11.90;99.90;;;;;;4938780;29;20602;-77
2021/05/27 11:58:41;;;;;;;16.50;11.30;;;12.10;99.90;;;;;;4939020;29;20213;-77
2021/05/27 12:01:13;;;;;;;20.02;11.02;;;12.20;99.90;;;;;;4938862;29;20604;-77
2021/05/27 12:03:39;;;;;;;15.30;11.15;;;12.50;99.90;;;;;;4936983;29;20297;-77
2021/05/27 12:06:05;;;;;;;17.40;11.67;;;12.50;99.90;;;;;;4937268;29;20591;-77
2021/05/27 12:08:40;;;;;;;15.27;9.83;;;12.40;99.90;;;;;;4937831;29;20623;-77
2021/05/27 12:11:06;;;;;;;13.25;9.10;;;12.30;99.90;;;;;;4938775;29;20565;-77
2021/05/27 12:13:32;;;;;;;15.87;9.20;;;12.20;99.90;;;;;;4952994;29;20202;-77
2021/05/27 12:15:57;;;;;;;11.87;8.90;;;12.20;99.90;;;;;;4937124;29;20930;-78
2021/05/27 12:18:23;;;;;;;9.50;7.27;;;12.30;99.90;;;;;;4937198;29;20610;-78
2021/05/27 12:20:50;;;;;;;9.40;8.00;;;12.10;99.90;;;;;;4938377;29;20268;-77
2021/05/27 12:23:17;;;;;;;17.55;8.38;;;12.20;99.90;;;;;;4937837;29;20202;-77
2021/05/27 12:25:45;;;;;;;13.55;7.03;;;12.40;99.90;;;;;;4938029;29;20300;-77
2021/05/27 12:28:16;;;;;;;14.70;8.67;;;12.50;99.90;;;;;;4938232;29;20186;-78
2021/05/27 12:30:45;;;;;;;12.00;7.20;;;12.60;99.90;;;;;;4938156;29;20397;-77
2021/05/27 12:33:16;;;;;;;8.40;7.00;;;12.60;99.90;;;;;;4937812;29;20425;-77
2021/05/27 12:35:42;;;;;;;9.07;8.10;;;12.60;99.90;;;;;;4936753;29;20434;-77
2021/05/27 12:38:29;;;;;;;13.15;7.65;;;12.70;99.90;;;;;;4936689;29;20519;-78
2021/05/27 12:41:14;;;;;;;12.67;6.90;;;12.70;99.90;;;;;;4952698;29;20185;-77